sensor_id;sensor_type;location;lat;lon;timestamp;P1;durP1;ratioP1;P2;durP2;ratioP2
68523;SDS011;55524;51.380;13.372;2024-03-22T00:01:44;12.88;;;6.82;;
68523;SDS011;55524;51.380;13.372;2024-03-22T00:04:11;13.80;;;6.50;;
68523;SDS011;55524;51.380;13.372;2024-03-22T00:06:38;12.45;;;6.57;;
68523;SDS011;55524;51.380;13.372;2024-03-22T00:09:08;12.40;;;7.03;;
68523;SDS011;55524;51.380;13.372;2024-03-22T00:11:35;13.35;;;6.55;;
68523;SDS011;55524;51.380;13.372;2024-03-22T00:14:02;14.63;;;7.13;;
68523;SDS011;55524;51.380;13.372;2024-03-22T00:16:29;13.45;;;7.07;;
68523;SDS011;55524;51.380;13.372;2024-03-22T00:18:55;14.82;;;7.18;;
68523;SDS011;55524;51.380;13.372;2024-03-22T00:21:22;13.35;;;6.93;;
68523;SDS011;55524;51.380;13.372;2024-03-22T00:23:48;15.10;;;6.80;;
68523;SDS011;55524;51.380;13.372;2024-03-22T00:26:15;13.38;;;6.45;;
68523;SDS011;55524;51.380;13.372;2024-03-22T00:28:41;12.50;;;6.82;;
68523;SDS011;55524;51.380;13.372;2024-03-22T00:31:10;13.50;;;6.57;;
68523;SDS011;55524;51.380;13.372;2024-03-22T00:33:36;15.45;;;6.97;;
68523;SDS011;55524;51.380;13.372;2024-03-22T00:36:03;12.77;;;6.72;;
68523;SDS011;55524;51.380;13.372;2024-03-22T00:38:29;14.38;;;7.68;;
68523;SDS011;55524;51.380;13.372;2024-03-22T00:40:56;13.93;;;6.72;;
68523;SDS011;55524;51.380;13.372;2024-03-22T00:43:22;12.15;;;6.50;;
68523;SDS011;55524;51.380;13.372;2024-03-22T00:45:48;12.52;;;6.68;;
68523;SDS011;55524;51.380;13.372;2024-03-22T00:48:15;14.38;;;6.85;;
68523;SDS011;55524;51.380;13.372;2024-03-22T00:50:41;14.68;;;7.10;;
68523;SDS011;55524;51.380;13.372;2024-03-22T00:53:07;14.10;;;7.03;;
68523;SDS011;55524;51.380;13.372;2024-03-22T00:55:35;14.15;;;6.63;;
68523;SDS011;55524;51.380;13.372;2024-03-22T00:58:01;12.80;;;6.63;;
68523;SDS011;55524;51.380;13.372;2024-03-22T01:00:27;14.05;;;7.75;;
68523;SDS011;55524;51.380;13.372;2024-03-22T01:02:54;13.30;;;7.68;;
68523;SDS011;55524;51.380;13.372;2024-03-22T01:05:20;20.08;;;7.60;;
68523;SDS011;55524;51.380;13.372;2024-03-22T01:07:46;15.90;;;7.55;;
68523;SDS011;55524;51.380;13.372;2024-03-22T01:10:13;17.63;;;7.13;;
68523;SDS011;55524;51.380;13.372;2024-03-22T01:12:39;16.25;;;7.63;;
68523;SDS011;55524;51.380;13.372;2024-03-22T01:15:06;22.50;;;8.25;;
68523;SDS011;55524;51.380;13.372;2024-03-22T01:17:33;16.98;;;7.78;;
68523;SDS011;55524;51.380;13.372;2024-03-22T01:19:59;19.00;;;8.35;;
68523;SDS011;55524;51.380;13.372;2024-03-22T01:22:26;16.67;;;8.25;;
68523;SDS011;55524;51.380;13.372;2024-03-22T01:24:52;17.33;;;7.63;;
68523;SDS011;55524;51.380;13.372;2024-03-22T01:27:18;20.75;;;8.68;;
68523;SDS011;55524;51.380;13.372;2024-03-22T01:29:46;17.83;;;8.30;;
68523;SDS011;55524;51.380;13.372;2024-03-22T01:32:12;18.75;;;8.07;;
68523;SDS011;55524;51.380;13.372;2024-03-22T01:34:38;19.00;;;7.53;;
68523;SDS011;55524;51.380;13.372;2024-03-22T01:37:05;17.92;;;8.93;;
68523;SDS011;55524;51.380;13.372;2024-03-22T01:39:31;18.05;;;8.35;;
68523;SDS011;55524;51.380;13.372;2024-03-22T01:41:57;19.65;;;8.23;;
68523;SDS011;55524;51.380;13.372;2024-03-22T01:44:27;17.60;;;7.72;;
68523;SDS011;55524;51.380;13.372;2024-03-22T01:46:54;19.63;;;8.75;;
68523;SDS011;55524;51.380;13.372;2024-03-22T01:49:21;17.30;;;8.23;;
68523;SDS011;55524;51.380;13.372;2024-03-22T01:51:50;20.13;;;8.07;;
68523;SDS011;55524;51.380;13.372;2024-03-22T01:54:16;20.60;;;8.90;;
68523;SDS011;55524;51.380;13.372;2024-03-22T01:56:44;17.40;;;7.88;;
68523;SDS011;55524;51.380;13.372;2024-03-22T01:59:11;15.95;;;7.45;;
68523;SDS011;55524;51.380;13.372;2024-03-22T02:01:38;18.90;;;8.68;;
68523;SDS011;55524;51.380;13.372;2024-03-22T02:04:05;17.55;;;7.75;;
68523;SDS011;55524;51.380;13.372;2024-03-22T02:06:32;20.95;;;7.65;;
68523;SDS011;55524;51.380;13.372;2024-03-22T02:08:59;17.10;;;7.90;;
68523;SDS011;55524;51.380;13.372;2024-03-22T02:11:26;17.05;;;8.02;;
68523;SDS011;55524;51.380;13.372;2024-03-22T02:13:53;17.58;;;8.10;;
68523;SDS011;55524;51.380;13.372;2024-03-22T02:16:20;17.27;;;7.78;;
68523;SDS011;55524;51.380;13.372;2024-03-22T02:18:46;19.75;;;7.75;;
68523;SDS011;55524;51.380;13.372;2024-03-22T02:21:12;17.08;;;8.32;;
68523;SDS011;55524;51.380;13.372;2024-03-22T02:23:39;18.55;;;7.60;;
68523;SDS011;55524;51.380;13.372;2024-03-22T02:26:06;16.52;;;7.78;;
68523;SDS011;55524;51.380;13.372;2024-03-22T02:28:33;18.35;;;7.75;;
68523;SDS011;55524;51.380;13.372;2024-03-22T02:31:01;16.17;;;7.40;;
68523;SDS011;55524;51.380;13.372;2024-03-22T02:33:28;16.00;;;7.40;;
68523;SDS011;55524;51.380;13.372;2024-03-22T02:35:54;17.92;;;7.53;;
68523;SDS011;55524;51.380;13.372;2024-03-22T02:38:21;16.67;;;7.03;;
68523;SDS011;55524;51.380;13.372;2024-03-22T02:40:48;20.85;;;7.10;;
68523;SDS011;55524;51.380;13.372;2024-03-22T02:43:17;21.30;;;8.07;;
68523;SDS011;55524;51.380;13.372;2024-03-22T02:45:44;17.90;;;7.43;;
68523;SDS011;55524;51.380;13.372;2024-03-22T02:48:11;16.63;;;7.43;;
68523;SDS011;55524;51.380;13.372;2024-03-22T02:50:37;16.45;;;7.30;;
68523;SDS011;55524;51.380;13.372;2024-03-22T02:53:04;16.27;;;7.55;;
68523;SDS011;55524;51.380;13.372;2024-03-22T02:55:40;22.50;;;8.52;;
68523;SDS011;55524;51.380;13.372;2024-03-22T02:58:07;17.23;;;7.85;;
68523;SDS011;55524;51.380;13.372;2024-03-22T03:00:37;21.13;;;9.07;;
68523;SDS011;55524;51.380;13.372;2024-03-22T03:03:04;18.98;;;7.80;;
68523;SDS011;55524;51.380;13.372;2024-03-22T03:05:31;15.25;;;7.60;;
68523;SDS011;55524;51.380;13.372;2024-03-22T03:07:57;19.70;;;7.93;;
68523;SDS011;55524;51.380;13.372;2024-03-22T03:10:24;16.23;;;7.80;;
68523;SDS011;55524;51.380;13.372;2024-03-22T03:12:50;19.77;;;8.85;;
68523;SDS011;55524;51.380;13.372;2024-03-22T03:15:19;16.75;;;7.75;;
68523;SDS011;55524;51.380;13.372;2024-03-22T03:17:45;18.67;;;7.70;;
68523;SDS011;55524;51.380;13.372;2024-03-22T03:20:11;17.85;;;8.20;;
68523;SDS011;55524;51.380;13.372;2024-03-22T03:22:39;16.73;;;7.65;;
68523;SDS011;55524;51.380;13.372;2024-03-22T03:25:05;18.08;;;8.18;;
68523;SDS011;55524;51.380;13.372;2024-03-22T03:27:32;18.55;;;8.10;;
68523;SDS011;55524;51.380;13.372;2024-03-22T03:29:58;16.02;;;7.95;;
68523;SDS011;55524;51.380;13.372;2024-03-22T03:32:25;23.38;;;8.18;;
68523;SDS011;55524;51.380;13.372;2024-03-22T03:34:52;18.50;;;8.40;;
68523;SDS011;55524;51.380;13.372;2024-03-22T03:37:19;17.50;;;8.13;;
68523;SDS011;55524;51.380;13.372;2024-03-22T03:39:45;20.15;;;7.47;;
68523;SDS011;55524;51.380;13.372;2024-03-22T03:42:11;14.38;;;7.32;;
68523;SDS011;55524;51.380;13.372;2024-03-22T03:44:37;13.82;;;7.38;;
68523;SDS011;55524;51.380;13.372;2024-03-22T03:47:04;16.40;;;7.70;;
68523;SDS011;55524;51.380;13.372;2024-03-22T03:49:30;21.25;;;8.20;;
68523;SDS011;55524;51.380;13.372;2024-03-22T03:51:56;18.80;;;8.20;;
68523;SDS011;55524;51.380;13.372;2024-03-22T03:54:22;18.83;;;8.73;;
68523;SDS011;55524;51.380;13.372;2024-03-22T03:56:49;17.05;;;8.07;;
68523;SDS011;55524;51.380;13.372;2024-03-22T03:59:15;20.48;;;8.55;;
68523;SDS011;55524;51.380;13.372;2024-03-22T04:01:41;15.68;;;7.60;;
68523;SDS011;55524;51.380;13.372;2024-03-22T04:04:07;17.08;;;8.07;;
68523;SDS011;55524;51.380;13.372;2024-03-22T04:06:34;18.58;;;8.35;;
68523;SDS011;55524;51.380;13.372;2024-03-22T04:09:00;21.00;;;8.68;;
68523;SDS011;55524;51.380;13.372;2024-03-22T04:11:27;20.52;;;9.77;;
68523;SDS011;55524;51.380;13.372;2024-03-22T04:13:54;20.23;;;8.32;;
68523;SDS011;55524;51.380;13.372;2024-03-22T04:16:20;20.88;;;8.95;;
68523;SDS011;55524;51.380;13.372;2024-03-22T04:18:46;18.25;;;8.20;;
68523;SDS011;55524;51.380;13.372;2024-03-22T04:21:12;18.77;;;9.25;;
68523;SDS011;55524;51.380;13.372;2024-03-22T04:23:39;20.95;;;9.68;;
68523;SDS011;55524;51.380;13.372;2024-03-22T04:26:05;20.88;;;8.57;;
68523;SDS011;55524;51.380;13.372;2024-03-22T04:28:31;25.38;;;9.65;;
68523;SDS011;55524;51.380;13.372;2024-03-22T04:31:01;22.67;;;9.40;;
68523;SDS011;55524;51.380;13.372;2024-03-22T04:33:28;23.25;;;8.82;;
68523;SDS011;55524;51.380;13.372;2024-03-22T04:35:55;23.15;;;9.63;;
68523;SDS011;55524;51.380;13.372;2024-03-22T04:38:23;21.80;;;9.10;;
68523;SDS011;55524;51.380;13.372;2024-03-22T04:40:50;23.58;;;9.98;;
68523;SDS011;55524;51.380;13.372;2024-03-22T04:43:16;23.52;;;10.13;;
68523;SDS011;55524;51.380;13.372;2024-03-22T04:45:43;24.10;;;9.38;;
68523;SDS011;55524;51.380;13.372;2024-03-22T04:48:12;19.40;;;9.05;;
68523;SDS011;55524;51.380;13.372;2024-03-22T04:50:39;22.02;;;10.18;;
68523;SDS011;55524;51.380;13.372;2024-03-22T04:53:06;27.08;;;10.57;;
68523;SDS011;55524;51.380;13.372;2024-03-22T04:55:32;25.77;;;11.00;;
68523;SDS011;55524;51.380;13.372;2024-03-22T04:57:59;25.38;;;9.98;;
68523;SDS011;55524;51.380;13.372;2024-03-22T05:00:25;22.73;;;10.73;;
68523;SDS011;55524;51.380;13.372;2024-03-22T05:02:53;22.33;;;10.55;;
68523;SDS011;55524;51.380;13.372;2024-03-22T05:05:20;23.45;;;10.05;;
68523;SDS011;55524;51.380;13.372;2024-03-22T05:07:46;23.00;;;9.63;;
68523;SDS011;55524;51.380;13.372;2024-03-22T05:10:13;19.02;;;9.70;;
68523;SDS011;55524;51.380;13.372;2024-03-22T05:12:41;19.58;;;9.75;;
68523;SDS011;55524;51.380;13.372;2024-03-22T05:15:07;20.23;;;9.48;;
68523;SDS011;55524;51.380;13.372;2024-03-22T05:17:33;23.88;;;10.57;;
68523;SDS011;55524;51.380;13.372;2024-03-22T05:20:00;24.75;;;9.88;;
68523;SDS011;55524;51.380;13.372;2024-03-22T05:22:30;20.30;;;9.67;;
68523;SDS011;55524;51.380;13.372;2024-03-22T05:24:57;23.73;;;10.35;;
68523;SDS011;55524;51.380;13.372;2024-03-22T05:27:23;21.25;;;9.50;;
68523;SDS011;55524;51.380;13.372;2024-03-22T05:29:49;23.13;;;9.57;;
68523;SDS011;55524;51.380;13.372;2024-03-22T05:32:15;19.83;;;9.13;;
68523;SDS011;55524;51.380;13.372;2024-03-22T05:34:42;20.05;;;9.45;;
68523;SDS011;55524;51.380;13.372;2024-03-22T05:37:08;18.40;;;8.98;;
68523;SDS011;55524;51.380;13.372;2024-03-22T05:39:36;18.45;;;9.07;;
68523;SDS011;55524;51.380;13.372;2024-03-22T05:42:02;15.35;;;8.23;;
68523;SDS011;55524;51.380;13.372;2024-03-22T05:44:29;14.15;;;8.32;;
68523;SDS011;55524;51.380;13.372;2024-03-22T05:46:55;17.63;;;8.43;;
68523;SDS011;55524;51.380;13.372;2024-03-22T05:49:21;12.85;;;7.68;;
68523;SDS011;55524;51.380;13.372;2024-03-22T05:51:47;13.43;;;8.05;;
68523;SDS011;55524;51.380;13.372;2024-03-22T05:54:14;17.02;;;7.50;;
68523;SDS011;55524;51.380;13.372;2024-03-22T05:56:40;14.00;;;7.88;;
68523;SDS011;55524;51.380;13.372;2024-03-22T05:59:06;14.18;;;7.72;;
68523;SDS011;55524;51.380;13.372;2024-03-22T06:01:32;17.00;;;8.45;;
68523;SDS011;55524;51.380;13.372;2024-03-22T06:03:59;15.63;;;8.30;;
68523;SDS011;55524;51.380;13.372;2024-03-22T06:06:25;13.00;;;7.00;;
68523;SDS011;55524;51.380;13.372;2024-03-22T06:08:54;13.90;;;7.18;;
68523;SDS011;55524;51.380;13.372;2024-03-22T06:11:22;11.17;;;6.40;;
68523;SDS011;55524;51.380;13.372;2024-03-22T06:13:48;10.40;;;6.03;;
68523;SDS011;55524;51.380;13.372;2024-03-22T06:16:16;13.68;;;6.53;;
68523;SDS011;55524;51.380;13.372;2024-03-22T06:18:42;13.30;;;6.20;;
68523;SDS011;55524;51.380;13.372;2024-03-22T06:21:08;14.18;;;6.35;;
68523;SDS011;55524;51.380;13.372;2024-03-22T06:23:34;11.02;;;5.88;;
68523;SDS011;55524;51.380;13.372;2024-03-22T06:26:01;11.55;;;6.82;;
68523;SDS011;55524;51.380;13.372;2024-03-22T06:28:28;9.93;;;5.72;;
68523;SDS011;55524;51.380;13.372;2024-03-22T06:30:54;12.02;;;5.72;;
68523;SDS011;55524;51.380;13.372;2024-03-22T06:33:20;10.18;;;5.65;;
68523;SDS011;55524;51.380;13.372;2024-03-22T06:35:47;9.15;;;5.53;;
68523;SDS011;55524;51.380;13.372;2024-03-22T06:38:13;8.70;;;5.43;;
68523;SDS011;55524;51.380;13.372;2024-03-22T06:40:40;10.13;;;5.65;;
68523;SDS011;55524;51.380;13.372;2024-03-22T06:43:06;9.32;;;5.55;;
68523;SDS011;55524;51.380;13.372;2024-03-22T06:45:33;20.35;;;6.18;;
68523;SDS011;55524;51.380;13.372;2024-03-22T06:48:00;10.02;;;5.55;;
68523;SDS011;55524;51.380;13.372;2024-03-22T06:50:26;9.63;;;5.70;;
68523;SDS011;55524;51.380;13.372;2024-03-22T06:52:53;8.43;;;5.50;;
68523;SDS011;55524;51.380;13.372;2024-03-22T06:55:21;11.10;;;6.05;;
68523;SDS011;55524;51.380;13.372;2024-03-22T06:57:48;11.35;;;5.40;;
68523;SDS011;55524;51.380;13.372;2024-03-22T07:00:16;24.83;;;5.88;;
68523;SDS011;55524;51.380;13.372;2024-03-22T07:02:42;10.35;;;5.63;;
68523;SDS011;55524;51.380;13.372;2024-03-22T07:05:09;8.05;;;5.40;;
68523;SDS011;55524;51.380;13.372;2024-03-22T07:07:36;9.73;;;5.47;;
68523;SDS011;55524;51.380;13.372;2024-03-22T07:10:03;7.30;;;5.10;;
68523;SDS011;55524;51.380;13.372;2024-03-22T07:12:32;9.25;;;5.40;;
68523;SDS011;55524;51.380;13.372;2024-03-22T07:15:00;8.57;;;5.60;;
68523;SDS011;55524;51.380;13.372;2024-03-22T07:17:27;7.93;;;5.05;;
68523;SDS011;55524;51.380;13.372;2024-03-22T07:19:53;7.85;;;5.53;;
68523;SDS011;55524;51.380;13.372;2024-03-22T07:22:21;13.00;;;5.78;;
68523;SDS011;55524;51.380;13.372;2024-03-22T07:24:47;9.75;;;5.47;;
68523;SDS011;55524;51.380;13.372;2024-03-22T07:27:14;10.38;;;5.45;;
68523;SDS011;55524;51.380;13.372;2024-03-22T07:29:41;9.07;;;5.07;;
68523;SDS011;55524;51.380;13.372;2024-03-22T07:32:07;8.75;;;5.38;;
68523;SDS011;55524;51.380;13.372;2024-03-22T07:34:34;14.73;;;5.90;;
68523;SDS011;55524;51.380;13.372;2024-03-22T07:37:00;13.27;;;5.57;;
68523;SDS011;55524;51.380;13.372;2024-03-22T07:39:26;12.48;;;6.38;;
68523;SDS011;55524;51.380;13.372;2024-03-22T07:41:53;12.77;;;5.95;;
68523;SDS011;55524;51.380;13.372;2024-03-22T07:44:19;11.57;;;5.75;;
68523;SDS011;55524;51.380;13.372;2024-03-22T07:46:49;11.75;;;6.88;;
68523;SDS011;55524;51.380;13.372;2024-03-22T07:49:16;10.57;;;5.97;;
68523;SDS011;55524;51.380;13.372;2024-03-22T07:51:42;12.65;;;6.45;;
68523;SDS011;55524;51.380;13.372;2024-03-22T07:54:08;11.00;;;6.15;;
68523;SDS011;55524;51.380;13.372;2024-03-22T07:56:34;13.65;;;7.13;;
68523;SDS011;55524;51.380;13.372;2024-03-22T07:59:01;17.30;;;7.22;;
68523;SDS011;55524;51.380;13.372;2024-03-22T08:01:27;11.38;;;6.68;;
68523;SDS011;55524;51.380;13.372;2024-03-22T08:03:53;15.32;;;7.50;;
68523;SDS011;55524;51.380;13.372;2024-03-22T08:06:19;16.38;;;8.27;;
68523;SDS011;55524;51.380;13.372;2024-03-22T08:08:46;13.70;;;6.90;;
68523;SDS011;55524;51.380;13.372;2024-03-22T08:11:12;16.60;;;7.65;;
68523;SDS011;55524;51.380;13.372;2024-03-22T08:13:39;15.00;;;7.07;;
68523;SDS011;55524;51.380;13.372;2024-03-22T08:16:05;22.38;;;8.30;;
68523;SDS011;55524;51.380;13.372;2024-03-22T08:18:32;16.35;;;8.40;;
68523;SDS011;55524;51.380;13.372;2024-03-22T08:20:58;17.35;;;8.70;;
68523;SDS011;55524;51.380;13.372;2024-03-22T08:23:24;17.85;;;8.55;;
68523;SDS011;55524;51.380;13.372;2024-03-22T08:25:50;19.98;;;9.13;;
68523;SDS011;55524;51.380;13.372;2024-03-22T08:28:17;18.83;;;8.27;;
68523;SDS011;55524;51.380;13.372;2024-03-22T08:30:43;16.10;;;8.27;;
68523;SDS011;55524;51.380;13.372;2024-03-22T08:33:10;21.20;;;8.43;;
68523;SDS011;55524;51.380;13.372;2024-03-22T08:35:36;15.30;;;7.70;;
68523;SDS011;55524;51.380;13.372;2024-03-22T08:38:03;16.42;;;8.15;;
68523;SDS011;55524;51.380;13.372;2024-03-22T08:40:34;15.70;;;7.55;;
68523;SDS011;55524;51.380;13.372;2024-03-22T08:43:05;15.32;;;7.97;;
68523;SDS011;55524;51.380;13.372;2024-03-22T08:45:34;14.45;;;7.53;;
68523;SDS011;55524;51.380;13.372;2024-03-22T08:48:00;30.13;;;8.35;;
68523;SDS011;55524;51.380;13.372;2024-03-22T08:50:27;21.63;;;7.97;;
68523;SDS011;55524;51.380;13.372;2024-03-22T08:52:53;17.58;;;8.07;;
68523;SDS011;55524;51.380;13.372;2024-03-22T08:55:19;18.08;;;8.52;;
68523;SDS011;55524;51.380;13.372;2024-03-22T08:57:46;19.73;;;7.90;;
68523;SDS011;55524;51.380;13.372;2024-03-22T09:00:12;19.45;;;8.23;;
68523;SDS011;55524;51.380;13.372;2024-03-22T09:02:38;22.88;;;8.75;;
68523;SDS011;55524;51.380;13.372;2024-03-22T09:05:05;17.38;;;7.82;;
68523;SDS011;55524;51.380;13.372;2024-03-22T09:07:33;16.85;;;8.05;;
68523;SDS011;55524;51.380;13.372;2024-03-22T09:09:59;15.00;;;8.00;;
68523;SDS011;55524;51.380;13.372;2024-03-22T09:12:32;17.02;;;7.72;;
68523;SDS011;55524;51.380;13.372;2024-03-22T09:14:58;16.10;;;7.97;;
68523;SDS011;55524;51.380;13.372;2024-03-22T09:17:25;14.80;;;8.02;;
68523;SDS011;55524;51.380;13.372;2024-03-22T09:19:52;17.98;;;8.75;;
68523;SDS011;55524;51.380;13.372;2024-03-22T09:22:18;13.10;;;7.13;;
68523;SDS011;55524;51.380;13.372;2024-03-22T09:24:44;16.42;;;7.88;;
68523;SDS011;55524;51.380;13.372;2024-03-22T09:27:10;14.90;;;7.25;;
68523;SDS011;55524;51.380;13.372;2024-03-22T09:29:37;17.30;;;8.05;;
68523;SDS011;55524;51.380;13.372;2024-03-22T09:32:03;18.65;;;8.38;;
68523;SDS011;55524;51.380;13.372;2024-03-22T09:34:32;16.20;;;7.70;;
68523;SDS011;55524;51.380;13.372;2024-03-22T09:36:59;16.60;;;8.32;;
68523;SDS011;55524;51.380;13.372;2024-03-22T09:39:25;14.43;;;7.50;;
68523;SDS011;55524;51.380;13.372;2024-03-22T09:41:52;14.07;;;7.65;;
68523;SDS011;55524;51.380;13.372;2024-03-22T09:44:23;15.93;;;8.07;;
68523;SDS011;55524;51.380;13.372;2024-03-22T09:46:53;14.50;;;7.90;;
68523;SDS011;55524;51.380;13.372;2024-03-22T09:49:20;15.35;;;7.25;;
68523;SDS011;55524;51.380;13.372;2024-03-22T09:51:48;21.25;;;8.35;;
68523;SDS011;55524;51.380;13.372;2024-03-22T09:54:16;13.73;;;7.90;;
68523;SDS011;55524;51.380;13.372;2024-03-22T09:56:42;14.70;;;7.18;;
68523;SDS011;55524;51.380;13.372;2024-03-22T09:59:13;14.15;;;7.63;;
68523;SDS011;55524;51.380;13.372;2024-03-22T10:01:39;15.13;;;7.63;;
68523;SDS011;55524;51.380;13.372;2024-03-22T10:04:09;17.25;;;7.95;;
68523;SDS011;55524;51.380;13.372;2024-03-22T10:06:36;15.32;;;7.35;;
68523;SDS011;55524;51.380;13.372;2024-03-22T10:09:02;12.25;;;7.00;;
68523;SDS011;55524;51.380;13.372;2024-03-22T10:11:30;16.85;;;7.40;;
68523;SDS011;55524;51.380;13.372;2024-03-22T10:13:56;18.40;;;8.38;;
68523;SDS011;55524;51.380;13.372;2024-03-22T10:16:24;15.32;;;7.55;;
68523;SDS011;55524;51.380;13.372;2024-03-22T10:18:51;12.70;;;7.47;;
68523;SDS011;55524;51.380;13.372;2024-03-22T10:21:18;15.60;;;7.43;;
68523;SDS011;55524;51.380;13.372;2024-03-22T10:23:46;16.40;;;6.82;;
68523;SDS011;55524;51.380;13.372;2024-03-22T10:26:13;9.57;;;6.20;;
68523;SDS011;55524;51.380;13.372;2024-03-22T10:28:46;13.38;;;7.05;;
68523;SDS011;55524;51.380;13.372;2024-03-22T10:31:15;14.13;;;7.85;;
68523;SDS011;55524;51.380;13.372;2024-03-22T10:33:41;15.98;;;7.30;;
68523;SDS011;55524;51.380;13.372;2024-03-22T10:36:10;15.43;;;7.18;;
68523;SDS011;55524;51.380;13.372;2024-03-22T10:38:38;24.42;;;7.70;;
68523;SDS011;55524;51.380;13.372;2024-03-22T10:41:05;14.30;;;7.55;;
68523;SDS011;55524;51.380;13.372;2024-03-22T10:43:32;14.73;;;6.95;;
68523;SDS011;55524;51.380;13.372;2024-03-22T10:46:01;12.98;;;6.80;;
68523;SDS011;55524;51.380;13.372;2024-03-22T10:48:31;15.15;;;7.05;;
68523;SDS011;55524;51.380;13.372;2024-03-22T10:50:59;15.82;;;7.00;;
68523;SDS011;55524;51.380;13.372;2024-03-22T10:53:26;11.55;;;6.53;;
68523;SDS011;55524;51.380;13.372;2024-03-22T10:55:56;15.02;;;7.13;;
68523;SDS011;55524;51.380;13.372;2024-03-22T10:58:25;15.20;;;6.15;;
68523;SDS011;55524;51.380;13.372;2024-03-22T11:00:52;12.32;;;6.25;;
68523;SDS011;55524;51.380;13.372;2024-03-22T11:03:19;11.27;;;6.45;;
68523;SDS011;55524;51.380;13.372;2024-03-22T11:05:49;14.52;;;7.03;;
68523;SDS011;55524;51.380;13.372;2024-03-22T11:08:25;10.90;;;5.97;;
68523;SDS011;55524;51.380;13.372;2024-03-22T11:10:53;12.75;;;6.22;;
68523;SDS011;55524;51.380;13.372;2024-03-22T11:13:19;11.93;;;6.63;;
68523;SDS011;55524;51.380;13.372;2024-03-22T11:15:49;10.02;;;6.10;;
68523;SDS011;55524;51.380;13.372;2024-03-22T11:18:19;9.48;;;5.93;;
68523;SDS011;55524;51.380;13.372;2024-03-22T11:20:45;10.27;;;5.70;;
68523;SDS011;55524;51.380;13.372;2024-03-22T11:23:12;10.70;;;6.43;;
68523;SDS011;55524;51.380;13.372;2024-03-22T11:25:38;12.00;;;6.03;;
68523;SDS011;55524;51.380;13.372;2024-03-22T11:28:05;9.90;;;5.85;;
68523;SDS011;55524;51.380;13.372;2024-03-22T11:30:32;12.50;;;6.50;;
68523;SDS011;55524;51.380;13.372;2024-03-22T11:33:02;12.13;;;6.78;;
68523;SDS011;55524;51.380;13.372;2024-03-22T11:35:32;13.02;;;6.00;;
68523;SDS011;55524;51.380;13.372;2024-03-22T11:37:59;13.80;;;6.40;;
68523;SDS011;55524;51.380;13.372;2024-03-22T11:40:25;12.95;;;6.20;;
68523;SDS011;55524;51.380;13.372;2024-03-22T11:42:55;14.80;;;5.68;;
68523;SDS011;55524;51.380;13.372;2024-03-22T11:45:22;8.80;;;5.70;;
68523;SDS011;55524;51.380;13.372;2024-03-22T11:47:50;16.10;;;6.40;;
68523;SDS011;55524;51.380;13.372;2024-03-22T11:50:16;10.57;;;5.88;;
68523;SDS011;55524;51.380;13.372;2024-03-22T11:52:43;13.90;;;5.75;;
68523;SDS011;55524;51.380;13.372;2024-03-22T11:55:12;11.02;;;5.13;;
68523;SDS011;55524;51.380;13.372;2024-03-22T11:57:39;15.48;;;5.38;;
68523;SDS011;55524;51.380;13.372;2024-03-22T12:00:06;19.27;;;6.00;;
68523;SDS011;55524;51.380;13.372;2024-03-22T12:02:37;8.80;;;5.35;;
68523;SDS011;55524;51.380;13.372;2024-03-22T12:05:04;11.52;;;6.47;;
68523;SDS011;55524;51.380;13.372;2024-03-22T12:07:31;11.13;;;7.18;;
68523;SDS011;55524;51.380;13.372;2024-03-22T12:09:58;10.23;;;5.70;;
68523;SDS011;55524;51.380;13.372;2024-03-22T12:12:24;8.75;;;5.35;;
68523;SDS011;55524;51.380;13.372;2024-03-22T12:15:00;9.57;;;5.68;;
68523;SDS011;55524;51.380;13.372;2024-03-22T12:17:26;11.23;;;4.90;;
68523;SDS011;55524;51.380;13.372;2024-03-22T12:19:52;8.30;;;5.25;;
68523;SDS011;55524;51.380;13.372;2024-03-22T12:22:19;8.50;;;4.88;;
68523;SDS011;55524;51.380;13.372;2024-03-22T12:24:57;10.82;;;5.45;;
68523;SDS011;55524;51.380;13.372;2024-03-22T12:27:24;10.27;;;5.10;;
68523;SDS011;55524;51.380;13.372;2024-03-22T12:33:00;9.00;;;5.30;;
68523;SDS011;55524;51.380;13.372;2024-03-22T12:35:27;8.73;;;5.13;;
68523;SDS011;55524;51.380;13.372;2024-03-22T12:37:57;9.27;;;5.38;;
68523;SDS011;55524;51.380;13.372;2024-03-22T12:40:23;10.82;;;5.65;;
68523;SDS011;55524;51.380;13.372;2024-03-22T12:42:50;10.60;;;5.18;;
68523;SDS011;55524;51.380;13.372;2024-03-22T12:45:16;11.18;;;5.60;;
68523;SDS011;55524;51.380;13.372;2024-03-22T12:47:42;9.25;;;5.15;;
68523;SDS011;55524;51.380;13.372;2024-03-22T12:50:08;13.48;;;6.68;;
68523;SDS011;55524;51.380;13.372;2024-03-22T12:52:38;10.05;;;5.55;;
68523;SDS011;55524;51.380;13.372;2024-03-22T12:55:05;8.80;;;6.03;;
68523;SDS011;55524;51.380;13.372;2024-03-22T12:57:33;8.43;;;5.47;;
68523;SDS011;55524;51.380;13.372;2024-03-22T12:59:59;13.57;;;6.72;;
68523;SDS011;55524;51.380;13.372;2024-03-22T13:02:26;10.88;;;6.75;;
68523;SDS011;55524;51.380;13.372;2024-03-22T13:04:52;10.98;;;5.95;;
68523;SDS011;55524;51.380;13.372;2024-03-22T13:07:19;12.27;;;6.82;;
68523;SDS011;55524;51.380;13.372;2024-03-22T13:09:46;9.82;;;6.70;;
68523;SDS011;55524;51.380;13.372;2024-03-22T13:12:12;11.25;;;6.47;;
68523;SDS011;55524;51.380;13.372;2024-03-22T13:14:38;12.70;;;6.50;;
68523;SDS011;55524;51.380;13.372;2024-03-22T13:17:04;13.55;;;7.30;;
68523;SDS011;55524;51.380;13.372;2024-03-22T13:19:31;10.35;;;6.63;;
68523;SDS011;55524;51.380;13.372;2024-03-22T13:21:58;13.50;;;7.20;;
68523;SDS011;55524;51.380;13.372;2024-03-22T13:24:24;14.02;;;7.28;;
68523;SDS011;55524;51.380;13.372;2024-03-22T13:26:50;17.20;;;9.43;;
68523;SDS011;55524;51.380;13.372;2024-03-22T13:29:16;15.02;;;7.78;;
68523;SDS011;55524;51.380;13.372;2024-03-22T13:31:43;17.75;;;8.95;;
68523;SDS011;55524;51.380;13.372;2024-03-22T13:34:09;26.15;;;10.70;;
68523;SDS011;55524;51.380;13.372;2024-03-22T13:36:35;12.90;;;7.82;;
68523;SDS011;55524;51.380;13.372;2024-03-22T13:39:03;24.55;;;10.48;;
68523;SDS011;55524;51.380;13.372;2024-03-22T13:41:29;16.02;;;9.00;;
68523;SDS011;55524;51.380;13.372;2024-03-22T13:43:56;15.93;;;8.75;;
68523;SDS011;55524;51.380;13.372;2024-03-22T13:46:23;17.95;;;8.88;;
68523;SDS011;55524;51.380;13.372;2024-03-22T13:48:51;17.10;;;8.70;;
68523;SDS011;55524;51.380;13.372;2024-03-22T13:51:17;19.88;;;12.07;;
68523;SDS011;55524;51.380;13.372;2024-03-22T13:53:43;33.15;;;13.95;;
68523;SDS011;55524;51.380;13.372;2024-03-22T13:56:09;46.38;;;23.77;;
68523;SDS011;55524;51.380;13.372;2024-03-22T13:58:36;26.20;;;12.68;;
68523;SDS011;55524;51.380;13.372;2024-03-22T14:01:03;36.47;;;14.25;;
68523;SDS011;55524;51.380;13.372;2024-03-22T14:03:30;17.42;;;9.65;;
68523;SDS011;55524;51.380;13.372;2024-03-22T14:05:56;19.13;;;10.02;;
68523;SDS011;55524;51.380;13.372;2024-03-22T14:08:22;15.93;;;8.85;;
68523;SDS011;55524;51.380;13.372;2024-03-22T14:10:48;17.20;;;9.77;;
68523;SDS011;55524;51.380;13.372;2024-03-22T14:13:14;17.27;;;9.15;;
68523;SDS011;55524;51.380;13.372;2024-03-22T14:15:41;15.02;;;8.93;;
68523;SDS011;55524;51.380;13.372;2024-03-22T14:18:07;16.30;;;9.75;;
68523;SDS011;55524;51.380;13.372;2024-03-22T14:20:34;15.02;;;9.00;;
68523;SDS011;55524;51.380;13.372;2024-03-22T14:23:03;16.88;;;8.70;;